sensor_id;sensor_type;location;lat;lon;timestamp;P1;durP1;ratioP1;P2;durP2;ratioP2
5890;SDS011;2971;52.420;7.080;2023-09-19T00:02:00;14.37;;;5.03;;
5890;SDS011;2971;52.420;7.080;2023-09-19T00:04:30;14.47;;;5.07;;
5890;SDS011;2971;52.420;7.080;2023-09-19T00:06:57;11.57;;;4.30;;
5890;SDS011;2971;52.420;7.080;2023-09-19T00:09:23;11.33;;;3.77;;
5890;SDS011;2971;52.420;7.080;2023-09-19T00:11:52;10.73;;;3.83;;
5890;SDS011;2971;52.420;7.080;2023-09-19T00:14:18;12.27;;;3.93;;
5890;SDS011;2971;52.420;7.080;2023-09-19T00:16:43;10.93;;;3.63;;
5890;SDS011;2971;52.420;7.080;2023-09-19T00:19:09;10.93;;;4.43;;
5890;SDS011;2971;52.420;7.080;2023-09-19T00:21:35;9.57;;;3.77;;
5890;SDS011;2971;52.420;7.080;2023-09-19T00:24:03;12.93;;;4.80;;
5890;SDS011;2971;52.420;7.080;2023-09-19T00:26:31;14.20;;;5.00;;
5890;SDS011;2971;52.420;7.080;2023-09-19T00:28:57;12.13;;;5.07;;
5890;SDS011;2971;52.420;7.080;2023-09-19T00:31:22;12.60;;;4.67;;
5890;SDS011;2971;52.420;7.080;2023-09-19T00:33:48;13.90;;;4.63;;
5890;SDS011;2971;52.420;7.080;2023-09-19T00:36:13;13.70;;;4.40;;
5890;SDS011;2971;52.420;7.080;2023-09-19T00:38:39;10.80;;;3.73;;
5890;SDS011;2971;52.420;7.080;2023-09-19T00:41:04;9.57;;;3.80;;
5890;SDS011;2971;52.420;7.080;2023-09-19T00:43:30;7.63;;;3.40;;
5890;SDS011;2971;52.420;7.080;2023-09-19T00:45:59;10.60;;;3.20;;
5890;SDS011;2971;52.420;7.080;2023-09-19T00:48:26;9.90;;;3.37;;
5890;SDS011;2971;52.420;7.080;2023-09-19T00:50:53;9.13;;;3.73;;
5890;SDS011;2971;52.420;7.080;2023-09-19T00:53:20;7.53;;;3.10;;
5890;SDS011;2971;52.420;7.080;2023-09-19T00:55:48;7.03;;;3.23;;
5890;SDS011;2971;52.420;7.080;2023-09-19T00:58:15;9.23;;;3.33;;
5890;SDS011;2971;52.420;7.080;2023-09-19T01:00:41;9.53;;;3.07;;
5890;SDS011;2971;52.420;7.080;2023-09-19T01:03:10;10.37;;;3.53;;
5890;SDS011;2971;52.420;7.080;2023-09-19T01:05:35;7.10;;;2.73;;
5890;SDS011;2971;52.420;7.080;2023-09-19T01:08:01;8.33;;;2.80;;
5890;SDS011;2971;52.420;7.080;2023-09-19T01:10:26;9.53;;;3.13;;
5890;SDS011;2971;52.420;7.080;2023-09-19T01:30:09;10.47;;;3.53;;
5890;SDS011;2971;52.420;7.080;2023-09-19T01:32:36;8.87;;;3.20;;
5890;SDS011;2971;52.420;7.080;2023-09-19T01:35:03;9.10;;;3.20;;
5890;SDS011;2971;52.420;7.080;2023-09-19T01:37:29;8.37;;;3.30;;
5890;SDS011;2971;52.420;7.080;2023-09-19T01:40:03;9.73;;;3.53;;
5890;SDS011;2971;52.420;7.080;2023-09-19T01:42:43;8.97;;;3.60;;
5890;SDS011;2971;52.420;7.080;2023-09-19T01:48:17;10.00;;;3.40;;
5890;SDS011;2971;52.420;7.080;2023-09-19T01:51:07;9.40;;;3.30;;
5890;SDS011;2971;52.420;7.080;2023-09-19T01:53:36;8.90;;;3.40;;
5890;SDS011;2971;52.420;7.080;2023-09-19T01:56:21;7.33;;;3.30;;
5890;SDS011;2971;52.420;7.080;2023-09-19T01:58:49;9.97;;;3.40;;
5890;SDS011;2971;52.420;7.080;2023-09-19T02:01:19;5.43;;;2.93;;
5890;SDS011;2971;52.420;7.080;2023-09-19T02:03:46;6.87;;;3.27;;
5890;SDS011;2971;52.420;7.080;2023-09-19T02:06:13;6.63;;;3.10;;
5890;SDS011;2971;52.420;7.080;2023-09-19T02:08:43;9.00;;;3.70;;
5890;SDS011;2971;52.420;7.080;2023-09-19T02:11:10;7.73;;;3.27;;
5890;SDS011;2971;52.420;7.080;2023-09-19T02:13:38;10.27;;;3.37;;
5890;SDS011;2971;52.420;7.080;2023-09-19T02:16:04;11.47;;;3.90;;
5890;SDS011;2971;52.420;7.080;2023-09-19T02:18:29;8.83;;;3.23;;
5890;SDS011;2971;52.420;7.080;2023-09-19T02:20:55;12.20;;;4.07;;
5890;SDS011;2971;52.420;7.080;2023-09-19T02:23:23;12.13;;;3.60;;
5890;SDS011;2971;52.420;7.080;2023-09-19T02:25:55;10.03;;;3.63;;
5890;SDS011;2971;52.420;7.080;2023-09-19T02:28:30;10.07;;;3.60;;
5890;SDS011;2971;52.420;7.080;2023-09-19T02:30:57;9.67;;;3.90;;
5890;SDS011;2971;52.420;7.080;2023-09-19T02:33:26;12.37;;;4.23;;
5890;SDS011;2971;52.420;7.080;2023-09-19T02:35:55;11.87;;;4.10;;
5890;SDS011;2971;52.420;7.080;2023-09-19T02:38:25;13.30;;;4.07;;
5890;SDS011;2971;52.420;7.080;2023-09-19T02:40:51;10.03;;;3.80;;
5890;SDS011;2971;52.420;7.080;2023-09-19T02:43:17;10.13;;;4.20;;
5890;SDS011;2971;52.420;7.080;2023-09-19T02:45:44;17.03;;;4.47;;
5890;SDS011;2971;52.420;7.080;2023-09-19T02:48:11;9.87;;;3.87;;
5890;SDS011;2971;52.420;7.080;2023-09-19T02:50:37;11.13;;;4.43;;
5890;SDS011;2971;52.420;7.080;2023-09-19T02:53:03;16.50;;;4.60;;
5890;SDS011;2971;52.420;7.080;2023-09-19T02:55:29;14.30;;;4.30;;
5890;SDS011;2971;52.420;7.080;2023-09-19T02:57:55;12.00;;;4.40;;
5890;SDS011;2971;52.420;7.080;2023-09-19T03:00:21;13.87;;;5.00;;
5890;SDS011;2971;52.420;7.080;2023-09-19T03:02:50;12.60;;;4.30;;
5890;SDS011;2971;52.420;7.080;2023-09-19T03:05:18;10.70;;;4.47;;
5890;SDS011;2971;52.420;7.080;2023-09-19T03:07:44;14.33;;;4.57;;
5890;SDS011;2971;52.420;7.080;2023-09-19T03:10:12;15.10;;;4.23;;
5890;SDS011;2971;52.420;7.080;2023-09-19T03:12:38;12.30;;;4.40;;
5890;SDS011;2971;52.420;7.080;2023-09-19T03:15:05;15.50;;;4.70;;
5890;SDS011;2971;52.420;7.080;2023-09-19T03:17:31;12.83;;;4.77;;
5890;SDS011;2971;52.420;7.080;2023-09-19T03:19:57;11.77;;;4.67;;
5890;SDS011;2971;52.420;7.080;2023-09-19T03:22:23;10.97;;;4.30;;
5890;SDS011;2971;52.420;7.080;2023-09-19T03:24:50;10.40;;;4.30;;
5890;SDS011;2971;52.420;7.080;2023-09-19T03:27:15;11.00;;;5.07;;
5890;SDS011;2971;52.420;7.080;2023-09-19T03:29:41;17.13;;;5.47;;
5890;SDS011;2971;52.420;7.080;2023-09-19T03:32:07;12.10;;;4.70;;
5890;SDS011;2971;52.420;7.080;2023-09-19T03:34:36;12.70;;;4.60;;
5890;SDS011;2971;52.420;7.080;2023-09-19T03:37:07;13.03;;;5.23;;
5890;SDS011;2971;52.420;7.080;2023-09-19T03:39:32;13.73;;;4.90;;
5890;SDS011;2971;52.420;7.080;2023-09-19T03:41:58;13.97;;;5.20;;
5890;SDS011;2971;52.420;7.080;2023-09-19T03:44:23;14.23;;;5.30;;
5890;SDS011;2971;52.420;7.080;2023-09-19T03:46:48;12.37;;;4.80;;
5890;SDS011;2971;52.420;7.080;2023-09-19T03:49:14;13.97;;;5.17;;
5890;SDS011;2971;52.420;7.080;2023-09-19T03:51:39;12.30;;;4.83;;
5890;SDS011;2971;52.420;7.080;2023-09-19T03:54:06;13.80;;;4.83;;
5890;SDS011;2971;52.420;7.080;2023-09-19T03:56:33;13.07;;;5.13;;
5890;SDS011;2971;52.420;7.080;2023-09-19T03:58:58;13.33;;;5.40;;
5890;SDS011;2971;52.420;7.080;2023-09-19T04:01:24;13.90;;;4.33;;
5890;SDS011;2971;52.420;7.080;2023-09-19T04:03:49;12.90;;;4.63;;
5890;SDS011;2971;52.420;7.080;2023-09-19T04:06:17;12.77;;;4.30;;
5890;SDS011;2971;52.420;7.080;2023-09-19T04:08:43;9.93;;;4.20;;
5890;SDS011;2971;52.420;7.080;2023-09-19T04:11:09;14.07;;;5.17;;
5890;SDS011;2971;52.420;7.080;2023-09-19T04:13:35;14.30;;;4.43;;
5890;SDS011;2971;52.420;7.080;2023-09-19T04:16:02;14.43;;;5.10;;
5890;SDS011;2971;52.420;7.080;2023-09-19T04:18:31;15.37;;;4.67;;
5890;SDS011;2971;52.420;7.080;2023-09-19T04:20:58;10.87;;;4.50;;
5890;SDS011;2971;52.420;7.080;2023-09-19T04:23:24;14.67;;;4.83;;
5890;SDS011;2971;52.420;7.080;2023-09-19T04:25:50;13.83;;;4.80;;
5890;SDS011;2971;52.420;7.080;2023-09-19T04:28:16;15.03;;;5.17;;
5890;SDS011;2971;52.420;7.080;2023-09-19T04:30:41;14.77;;;5.10;;
5890;SDS011;2971;52.420;7.080;2023-09-19T04:33:07;14.27;;;4.60;;
5890;SDS011;2971;52.420;7.080;2023-09-19T04:35:32;16.43;;;5.30;;
5890;SDS011;2971;52.420;7.080;2023-09-19T04:37:59;13.80;;;5.13;;
5890;SDS011;2971;52.420;7.080;2023-09-19T04:40:25;12.67;;;4.40;;
5890;SDS011;2971;52.420;7.080;2023-09-19T04:42:54;14.37;;;4.70;;
5890;SDS011;2971;52.420;7.080;2023-09-19T04:45:21;14.07;;;4.90;;
5890;SDS011;2971;52.420;7.080;2023-09-19T04:47:47;13.57;;;4.57;;
5890;SDS011;2971;52.420;7.080;2023-09-19T04:50:13;16.70;;;6.17;;
5890;SDS011;2971;52.420;7.080;2023-09-19T04:52:39;12.63;;;4.67;;
5890;SDS011;2971;52.420;7.080;2023-09-19T04:55:07;13.13;;;5.27;;
5890;SDS011;2971;52.420;7.080;2023-09-19T04:57:34;13.20;;;5.03;;
5890;SDS011;2971;52.420;7.080;2023-09-19T05:00:02;13.63;;;4.70;;
5890;SDS011;2971;52.420;7.080;2023-09-19T05:02:37;13.40;;;5.10;;
5890;SDS011;2971;52.420;7.080;2023-09-19T05:05:02;14.40;;;4.90;;
5890;SDS011;2971;52.420;7.080;2023-09-19T05:07:30;16.20;;;4.70;;
5890;SDS011;2971;52.420;7.080;2023-09-19T05:09:55;15.20;;;4.53;;
5890;SDS011;2971;52.420;7.080;2023-09-19T05:12:20;13.33;;;4.53;;
5890;SDS011;2971;52.420;7.080;2023-09-19T05:14:46;11.73;;;4.70;;
5890;SDS011;2971;52.420;7.080;2023-09-19T05:17:11;11.43;;;4.73;;
5890;SDS011;2971;52.420;7.080;2023-09-19T05:19:36;13.13;;;4.87;;
5890;SDS011;2971;52.420;7.080;2023-09-19T05:22:03;12.43;;;4.60;;
5890;SDS011;2971;52.420;7.080;2023-09-19T05:24:29;16.00;;;5.20;;
5890;SDS011;2971;52.420;7.080;2023-09-19T05:26:56;12.93;;;4.40;;
5890;SDS011;2971;52.420;7.080;2023-09-19T05:29:22;13.07;;;4.80;;
5890;SDS011;2971;52.420;7.080;2023-09-19T05:31:47;12.10;;;4.20;;
5890;SDS011;2971;52.420;7.080;2023-09-19T05:34:13;11.20;;;4.37;;
5890;SDS011;2971;52.420;7.080;2023-09-19T05:36:38;16.10;;;4.20;;
5890;SDS011;2971;52.420;7.080;2023-09-19T05:39:04;13.43;;;4.10;;
5890;SDS011;2971;52.420;7.080;2023-09-19T05:41:33;10.90;;;4.17;;
5890;SDS011;2971;52.420;7.080;2023-09-19T05:43:59;12.67;;;4.77;;
5890;SDS011;2971;52.420;7.080;2023-09-19T05:46:24;11.47;;;4.10;;
5890;SDS011;2971;52.420;7.080;2023-09-19T05:48:54;15.13;;;4.70;;
5890;SDS011;2971;52.420;7.080;2023-09-19T05:51:21;12.70;;;4.20;;
5890;SDS011;2971;52.420;7.080;2023-09-19T05:53:48;14.27;;;4.30;;
5890;SDS011;2971;52.420;7.080;2023-09-19T05:56:13;11.37;;;4.00;;
5890;SDS011;2971;52.420;7.080;2023-09-19T05:58:40;10.57;;;3.90;;
5890;SDS011;2971;52.420;7.080;2023-09-19T06:01:08;11.63;;;3.90;;
5890;SDS011;2971;52.420;7.080;2023-09-19T06:03:34;10.73;;;4.20;;
5890;SDS011;2971;52.420;7.080;2023-09-19T06:06:00;13.43;;;4.20;;
5890;SDS011;2971;52.420;7.080;2023-09-19T06:08:31;12.07;;;4.30;;
5890;SDS011;2971;52.420;7.080;2023-09-19T06:10:57;12.10;;;4.33;;
5890;SDS011;2971;52.420;7.080;2023-09-19T06:13:22;10.07;;;4.10;;
5890;SDS011;2971;52.420;7.080;2023-09-19T06:15:50;12.63;;;4.20;;
5890;SDS011;2971;52.420;7.080;2023-09-19T06:18:16;8.23;;;3.50;;
5890;SDS011;2971;52.420;7.080;2023-09-19T06:20:48;11.27;;;3.70;;
5890;SDS011;2971;52.420;7.080;2023-09-19T06:23:16;12.93;;;4.27;;
5890;SDS011;2971;52.420;7.080;2023-09-19T06:25:42;11.50;;;4.13;;
5890;SDS011;2971;52.420;7.080;2023-09-19T06:28:08;9.23;;;3.97;;
5890;SDS011;2971;52.420;7.080;2023-09-19T06:30:37;11.20;;;4.30;;
5890;SDS011;2971;52.420;7.080;2023-09-19T06:33:05;13.33;;;3.70;;
5890;SDS011;2971;52.420;7.080;2023-09-19T06:35:31;11.73;;;3.80;;
5890;SDS011;2971;52.420;7.080;2023-09-19T06:37:58;9.77;;;3.60;;
5890;SDS011;2971;52.420;7.080;2023-09-19T06:40:23;13.03;;;4.50;;
5890;SDS011;2971;52.420;7.080;2023-09-19T06:42:52;13.57;;;4.00;;
5890;SDS011;2971;52.420;7.080;2023-09-19T06:45:19;13.10;;;4.13;;
5890;SDS011;2971;52.420;7.080;2023-09-19T06:47:48;10.97;;;4.00;;
5890;SDS011;2971;52.420;7.080;2023-09-19T06:50:15;10.47;;;3.73;;
5890;SDS011;2971;52.420;7.080;2023-09-19T06:52:44;14.60;;;4.53;;
5890;SDS011;2971;52.420;7.080;2023-09-19T06:55:11;11.67;;;4.10;;
5890;SDS011;2971;52.420;7.080;2023-09-19T06:57:38;10.73;;;4.03;;
5890;SDS011;2971;52.420;7.080;2023-09-19T07:00:05;12.53;;;4.00;;
5890;SDS011;2971;52.420;7.080;2023-09-19T07:02:41;11.27;;;4.07;;
5890;SDS011;2971;52.420;7.080;2023-09-19T07:05:07;8.43;;;3.77;;
5890;SDS011;2971;52.420;7.080;2023-09-19T07:07:32;10.73;;;4.17;;
5890;SDS011;2971;52.420;7.080;2023-09-19T07:10:00;10.30;;;4.20;;
5890;SDS011;2971;52.420;7.080;2023-09-19T07:12:30;11.20;;;4.00;;
5890;SDS011;2971;52.420;7.080;2023-09-19T07:14:57;13.37;;;3.90;;
5890;SDS011;2971;52.420;7.080;2023-09-19T07:17:23;12.40;;;4.33;;
5890;SDS011;2971;52.420;7.080;2023-09-19T07:19:49;11.37;;;3.73;;
5890;SDS011;2971;52.420;7.080;2023-09-19T07:22:15;9.47;;;4.03;;
5890;SDS011;2971;52.420;7.080;2023-09-19T07:24:41;11.37;;;4.00;;
5890;SDS011;2971;52.420;7.080;2023-09-19T07:27:06;9.80;;;3.77;;
5890;SDS011;2971;52.420;7.080;2023-09-19T07:29:32;9.53;;;3.60;;
5890;SDS011;2971;52.420;7.080;2023-09-19T07:31:57;10.00;;;3.93;;
5890;SDS011;2971;52.420;7.080;2023-09-19T07:34:22;11.60;;;4.10;;
5890;SDS011;2971;52.420;7.080;2023-09-19T07:36:49;10.63;;;4.17;;
5890;SDS011;2971;52.420;7.080;2023-09-19T07:39:15;11.50;;;4.10;;
5890;SDS011;2971;52.420;7.080;2023-09-19T07:41:40;10.07;;;3.97;;
5890;SDS011;2971;52.420;7.080;2023-09-19T07:44:07;11.23;;;4.20;;
5890;SDS011;2971;52.420;7.080;2023-09-19T07:46:32;14.10;;;4.23;;
5890;SDS011;2971;52.420;7.080;2023-09-19T07:48:58;10.70;;;3.90;;
5890;SDS011;2971;52.420;7.080;2023-09-19T07:51:24;12.60;;;4.00;;
5890;SDS011;2971;52.420;7.080;2023-09-19T07:53:49;11.23;;;4.23;;
5890;SDS011;2971;52.420;7.080;2023-09-19T07:56:14;11.37;;;3.63;;
5890;SDS011;2971;52.420;7.080;2023-09-19T07:58:40;10.53;;;4.00;;
5890;SDS011;2971;52.420;7.080;2023-09-19T08:01:08;10.13;;;3.80;;
5890;SDS011;2971;52.420;7.080;2023-09-19T08:03:35;10.83;;;4.30;;
5890;SDS011;2971;52.420;7.080;2023-09-19T08:06:05;10.43;;;3.83;;
5890;SDS011;2971;52.420;7.080;2023-09-19T08:08:32;12.40;;;3.80;;
5890;SDS011;2971;52.420;7.080;2023-09-19T08:11:04;15.43;;;4.67;;
5890;SDS011;2971;52.420;7.080;2023-09-19T08:13:40;15.73;;;4.80;;
5890;SDS011;2971;52.420;7.080;2023-09-19T08:16:11;9.53;;;3.50;;
5890;SDS011;2971;52.420;7.080;2023-09-19T08:18:39;11.53;;;3.77;;
5890;SDS011;2971;52.420;7.080;2023-09-19T08:21:05;11.70;;;4.10;;
5890;SDS011;2971;52.420;7.080;2023-09-19T08:23:35;16.07;;;4.30;;
5890;SDS011;2971;52.420;7.080;2023-09-19T08:26:01;12.57;;;3.90;;
5890;SDS011;2971;52.420;7.080;2023-09-19T08:28:31;11.90;;;4.50;;
5890;SDS011;2971;52.420;7.080;2023-09-19T08:31:00;11.70;;;3.93;;
5890;SDS011;2971;52.420;7.080;2023-09-19T08:33:26;11.40;;;3.87;;
5890;SDS011;2971;52.420;7.080;2023-09-19T08:35:52;10.87;;;4.17;;
5890;SDS011;2971;52.420;7.080;2023-09-19T08:38:21;13.20;;;4.43;;
5890;SDS011;2971;52.420;7.080;2023-09-19T08:40:46;12.03;;;4.17;;
5890;SDS011;2971;52.420;7.080;2023-09-19T08:43:11;12.13;;;3.43;;
5890;SDS011;2971;52.420;7.080;2023-09-19T08:45:37;12.33;;;5.00;;
5890;SDS011;2971;52.420;7.080;2023-09-19T08:50:49;11.73;;;4.40;;
5890;SDS011;2971;52.420;7.080;2023-09-19T08:53:21;11.60;;;3.80;;
5890;SDS011;2971;52.420;7.080;2023-09-19T08:55:53;10.53;;;4.07;;
5890;SDS011;2971;52.420;7.080;2023-09-19T08:58:21;10.63;;;4.07;;
5890;SDS011;2971;52.420;7.080;2023-09-19T09:00:48;10.93;;;4.23;;
5890;SDS011;2971;52.420;7.080;2023-09-19T09:03:14;13.00;;;4.37;;
5890;SDS011;2971;52.420;7.080;2023-09-19T09:05:44;9.80;;;4.17;;
5890;SDS011;2971;52.420;7.080;2023-09-19T09:08:11;10.87;;;3.70;;
5890;SDS011;2971;52.420;7.080;2023-09-19T09:10:37;14.80;;;4.67;;
5890;SDS011;2971;52.420;7.080;2023-09-19T09:13:05;12.80;;;4.07;;
5890;SDS011;2971;52.420;7.080;2023-09-19T09:15:35;9.60;;;3.90;;
5890;SDS011;2971;52.420;7.080;2023-09-19T09:18:01;11.70;;;3.70;;
5890;SDS011;2971;52.420;7.080;2023-09-19T09:20:28;10.67;;;4.27;;
5890;SDS011;2971;52.420;7.080;2023-09-19T09:22:54;11.60;;;4.20;;
5890;SDS011;2971;52.420;7.080;2023-09-19T09:25:20;12.97;;;4.37;;
5890;SDS011;2971;52.420;7.080;2023-09-19T09:28:02;12.63;;;4.10;;
5890;SDS011;2971;52.420;7.080;2023-09-19T09:30:36;12.37;;;4.23;;
5890;SDS011;2971;52.420;7.080;2023-09-19T09:33:12;11.10;;;4.50;;
5890;SDS011;2971;52.420;7.080;2023-09-19T09:35:54;13.17;;;4.10;;
5890;SDS011;2971;52.420;7.080;2023-09-19T09:38:44;13.80;;;4.23;;
5890;SDS011;2971;52.420;7.080;2023-09-19T09:41:11;14.00;;;4.30;;
5890;SDS011;2971;52.420;7.080;2023-09-19T09:43:40;13.40;;;3.87;;
5890;SDS011;2971;52.420;7.080;2023-09-19T09:51:40;12.43;;;4.30;;
5890;SDS011;2971;52.420;7.080;2023-09-19T09:54:13;13.60;;;4.33;;
5890;SDS011;2971;52.420;7.080;2023-09-19T09:56:56;14.57;;;4.30;;
5890;SDS011;2971;52.420;7.080;2023-09-19T10:02:11;12.67;;;4.33;;
5890;SDS011;2971;52.420;7.080;2023-09-19T10:04:38;10.10;;;3.90;;
5890;SDS011;2971;52.420;7.080;2023-09-19T10:07:29;9.23;;;3.90;;
5890;SDS011;2971;52.420;7.080;2023-09-19T10:10:01;9.90;;;4.00;;
5890;SDS011;2971;52.420;7.080;2023-09-19T10:12:46;11.80;;;4.20;;
5890;SDS011;2971;52.420;7.080;2023-09-19T10:15:13;9.30;;;3.80;;
5890;SDS011;2971;52.420;7.080;2023-09-19T10:17:44;10.80;;;3.93;;
5890;SDS011;2971;52.420;7.080;2023-09-19T10:20:15;9.67;;;4.07;;
5890;SDS011;2971;52.420;7.080;2023-09-19T10:22:58;12.90;;;4.00;;
5890;SDS011;2971;52.420;7.080;2023-09-19T10:25:28;12.20;;;3.97;;
5890;SDS011;2971;52.420;7.080;2023-09-19T10:27:55;14.43;;;4.00;;
5890;SDS011;2971;52.420;7.080;2023-09-19T10:30:24;11.67;;;4.13;;
5890;SDS011;2971;52.420;7.080;2023-09-19T10:32:53;10.57;;;3.93;;
5890;SDS011;2971;52.420;7.080;2023-09-19T10:35:23;11.00;;;4.00;;
5890;SDS011;2971;52.420;7.080;2023-09-19T10:37:49;12.77;;;4.20;;
5890;SDS011;2971;52.420;7.080;2023-09-19T10:40:16;13.07;;;4.23;;
5890;SDS011;2971;52.420;7.080;2023-09-19T10:42:43;13.63;;;3.90;;
5890;SDS011;2971;52.420;7.080;2023-09-19T10:45:10;10.43;;;3.57;;
5890;SDS011;2971;52.420;7.080;2023-09-19T10:47:38;9.20;;;3.93;;
5890;SDS011;2971;52.420;7.080;2023-09-19T10:50:05;14.00;;;4.30;;
5890;SDS011;2971;52.420;7.080;2023-09-19T10:52:31;10.13;;;3.83;;
5890;SDS011;2971;52.420;7.080;2023-09-19T10:55:01;10.53;;;3.77;;
5890;SDS011;2971;52.420;7.080;2023-09-19T10:57:27;11.30;;;3.90;;
5890;SDS011;2971;52.420;7.080;2023-09-19T11:00:06;11.07;;;4.13;;
5890;SDS011;2971;52.420;7.080;2023-09-19T11:05:35;10.83;;;3.63;;
5890;SDS011;2971;52.420;7.080;2023-09-19T11:08:05;11.60;;;3.90;;
5890;SDS011;2971;52.420;7.080;2023-09-19T11:10:45;10.53;;;3.37;;
5890;SDS011;2971;52.420;7.080;2023-09-19T11:26:44;7.67;;;3.03;;
5890;SDS011;2971;52.420;7.080;2023-09-19T11:29:25;8.13;;;3.30;;
5890;SDS011;2971;52.420;7.080;2023-09-19T11:31:56;7.90;;;3.30;;
5890;SDS011;2971;52.420;7.080;2023-09-19T11:37:00;9.33;;;3.70;;
5890;SDS011;2971;52.420;7.080;2023-09-19T11:39:29;10.57;;;3.70;;
5890;SDS011;2971;52.420;7.080;2023-09-19T11:41:55;9.67;;;3.60;;
5890;SDS011;2971;52.420;7.080;2023-09-19T11:49:27;10.67;;;3.57;;
5890;SDS011;2971;52.420;7.080;2023-09-19T11:52:01;10.87;;;3.40;;
5890;SDS011;2971;52.420;7.080;2023-09-19T11:54:29;8.13;;;3.30;;
5890;SDS011;2971;52.420;7.080;2023-09-19T11:56:56;10.73;;;3.60;;
5890;SDS011;2971;52.420;7.080;2023-09-19T11:59:24;7.77;;;3.37;;
5890;SDS011;2971;52.420;7.080;2023-09-19T12:01:55;13.03;;;3.80;;
5890;SDS011;2971;52.420;7.080;2023-09-19T12:04:42;10.43;;;3.93;;
5890;SDS011;2971;52.420;7.080;2023-09-19T12:07:14;9.87;;;3.83;;
5890;SDS011;2971;52.420;7.080;2023-09-19T12:09:41;9.23;;;3.40;;
5890;SDS011;2971;52.420;7.080;2023-09-19T12:12:12;9.97;;;3.43;;
5890;SDS011;2971;52.420;7.080;2023-09-19T12:14:47;8.63;;;3.50;;
5890;SDS011;2971;52.420;7.080;2023-09-19T12:17:13;7.70;;;3.23;;
5890;SDS011;2971;52.420;7.080;2023-09-19T12:19:39;10.17;;;3.23;;
5890;SDS011;2971;52.420;7.080;2023-09-19T12:22:08;9.53;;;3.37;;
5890;SDS011;2971;52.420;7.080;2023-09-19T12:24:34;8.50;;;3.17;;
5890;SDS011;2971;52.420;7.080;2023-09-19T12:27:04;8.63;;;3.20;;
5890;SDS011;2971;52.420;7.080;2023-09-19T12:29:30;9.63;;;3.50;;
5890;SDS011;2971;52.420;7.080;2023-09-19T12:31:57;9.27;;;3.40;;
5890;SDS011;2971;52.420;7.080;2023-09-19T12:34:24;9.43;;;3.77;;
5890;SDS011;2971;52.420;7.080;2023-09-19T12:37:36;8.77;;;3.40;;
5890;SDS011;2971;52.420;7.080;2023-09-19T12:40:00;10.60;;;3.70;;
5890;SDS011;2971;52.420;7.080;2023-09-19T12:42:39;8.97;;;3.33;;
5890;SDS011;2971;52.420;7.080;2023-09-19T12:45:06;13.00;;;3.70;;
5890;SDS011;2971;52.420;7.080;2023-09-19T12:47:34;8.53;;;3.30;;
5890;SDS011;2971;52.420;7.080;2023-09-19T12:52:50;10.30;;;3.37;;
5890;SDS011;2971;52.420;7.080;2023-09-19T13:00:35;7.60;;;2.87;;
5890;SDS011;2971;52.420;7.080;2023-09-19T13:05:59;4.90;;;2.27;;
5890;SDS011;2971;52.420;7.080;2023-09-19T13:08:38;9.23;;;3.00;;
5890;SDS011;2971;52.420;7.080;2023-09-19T13:16:04;6.80;;;2.70;;
5890;SDS011;2971;52.420;7.080;2023-09-19T13:18:41;7.87;;;2.73;;
5890;SDS011;2971;52.420;7.080;2023-09-19T13:21:08;5.70;;;2.93;;
5890;SDS011;2971;52.420;7.080;2023-09-19T13:23:43;8.33;;;2.90;;
5890;SDS011;2971;52.420;7.080;2023-09-19T13:26:09;9.87;;;3.00;;
5890;SDS011;2971;52.420;7.080;2023-09-19T13:28:37;9.47;;;2.97;;
5890;SDS011;2971;52.420;7.080;2023-09-19T13:31:03;9.03;;;3.00;;
5890;SDS011;2971;52.420;7.080;2023-09-19T13:33:29;9.57;;;3.17;;
5890;SDS011;2971;52.420;7.080;2023-09-19T13:35:54;8.87;;;3.00;;
5890;SDS011;2971;52.420;7.080;2023-09-19T13:38:20;7.23;;;2.87;;
5890;SDS011;2971;52.420;7.080;2023-09-19T13:40:47;7.43;;;3.20;;
5890;SDS011;2971;52.420;7.080;2023-09-19T13:43:12;7.73;;;3.07;;
5890;SDS011;2971;52.420;7.080;2023-09-19T13:45:38;8.47;;;2.87;;
5890;SDS011;2971;52.420;7.080;2023-09-19T13:48:07;7.93;;;3.03;;
5890;SDS011;2971;52.420;7.080;2023-09-19T13:50:34;7.47;;;3.07;;
5890;SDS011;2971;52.420;7.080;2023-09-19T13:53:01;7.63;;;3.13;;
5890;SDS011;2971;52.420;7.080;2023-09-19T13:55:27;7.77;;;2.80;;
5890;SDS011;2971;52.420;7.080;2023-09-19T13:57:53;5.93;;;3.03;;
5890;SDS011;2971;52.420;7.080;2023-09-19T14:00:24;8.43;;;3.00;;
5890;SDS011;2971;52.420;7.080;2023-09-19T14:02:49;5.13;;;2.70;;
5890;SDS011;2971;52.420;7.080;2023-09-19T14:05:15;5.90;;;3.00;;
5890;SDS011;2971;52.420;7.080;2023-09-19T14:07:44;8.00;;;2.77;;
5890;SDS011;2971;52.420;7.080;2023-09-19T14:10:10;8.93;;;3.17;;
5890;SDS011;2971;52.420;7.080;2023-09-19T14:12:37;8.23;;;2.83;;
5890;SDS011;2971;52.420;7.080;2023-09-19T14:15:04;7.50;;;2.70;;
5890;SDS011;2971;52.420;7.080;2023-09-19T14:17:29;8.90;;;3.03;;
5890;SDS011;2971;52.420;7.080;2023-09-19T14:19:55;7.43;;;2.73;;
5890;SDS011;2971;52.420;7.080;2023-09-19T14:22:20;6.20;;;3.13;;
5890;SDS011;2971;52.420;7.080;2023-09-19T14:24:46;7.90;;;3.10;;
5890;SDS011;2971;52.420;7.080;2023-09-19T14:27:12;7.60;;;3.00;;
5890;SDS011;2971;52.420;7.080;2023-09-19T14:29:38;7.47;;;2.80;;
5890;SDS011;2971;52.420;7.080;2023-09-19T14:32:04;9.07;;;2.67;;
5890;SDS011;2971;52.420;7.080;2023-09-19T14:34:30;5.07;;;2.37;;
5890;SDS011;2971;52.420;7.080;2023-09-19T14:36:56;7.13;;;2.60;;
5890;SDS011;2971;52.420;7.080;2023-09-19T14:39:22;6.47;;;2.60;;
5890;SDS011;2971;52.420;7.080;2023-09-19T14:41:48;8.07;;;2.60;;
5890;SDS011;2971;52.420;7.080;2023-09-19T14:44:14;5.50;;;2.40;;
5890;SDS011;2971;52.420;7.080;2023-09-19T14:46:41;5.87;;;2.70;;
5890;SDS011;2971;52.420;7.080;2023-09-19T14:49:08;7.23;;;2.10;;
5890;SDS011;2971;52.420;7.080;2023-09-19T14:51:35;5.53;;;2.23;;
5890;SDS011;2971;52.420;7.080;2023-09-19T14:54:00;5.07;;;2.27;;
5890;SDS011;2971;52.420;7.080;2023-09-19T14:56:27;5.87;;;2.53;;
5890;SDS011;2971;52.420;7.080;2023-09-19T14:58:56;5.97;;;2.40;;
5890;SDS011;2971;52.420;7.080;2023-09-19T15:01:21;5.87;;;2.60;;
5890;SDS011;2971;52.420;7.080;2023-09-19T15:03:47;4.53;;;2.13;;
5890;SDS011;2971;52.420;7.080;2023-09-19T15:06:14;5.67;;;2.30;;
5890;SDS011;2971;52.420;7.080;2023-09-19T15:08:40;6.90;;;2.30;;
5890;SDS011;2971;52.420;7.080;2023-09-19T15:11:08;5.57;;;2.30;;
5890;SDS011;2971;52.420;7.080;2023-09-19T15:13:34;6.30;;;2.40;;
5890;SDS011;2971;52.420;7.080;2023-09-19T15:16:04;7.63;;;2.40;;
5890;SDS011;2971;52.420;7.080;2023-09-19T15:18:33;5.03;;;2.20;;
5890;SDS011;2971;52.420;7.080;2023-09-19T15:21:02;5.80;;;2.10;;
5890;SDS011;2971;52.420;7.080;2023-09-19T15:23:31;5.07;;;2.10;;
5890;SDS011;2971;52.420;7.080;2023-09-19T15:26:01;5.30;;;2.07;;
5890;SDS011;2971;52.420;7.080;2023-09-19T15:28:30;5.37;;;2.13;;
5890;SDS011;2971;52.420;7.080;2023-09-19T15:31:00;4.57;;;2.10;;
5890;SDS011;2971;52.420;7.080;2023-09-19T15:33:29;4.63;;;2.17;;
5890;SDS011;2971;52.420;7.080;2023-09-19T15:36:08;4.80;;;2.00;;
5890;SDS011;2971;52.420;7.080;2023-09-19T15:41:18;5.77;;;2.00;;
5890;SDS011;2971;52.420;7.080;2023-09-19T15:43:43;3.67;;;1.93;;
5890;SDS011;2971;52.420;7.080;2023-09-19T15:46:08;4.10;;;1.93;;
5890;SDS011;2971;52.420;7.080;2023-09-19T15:48:34;4.83;;;1.77;;
5890;SDS011;2971;52.420;7.080;2023-09-19T15:51:03;3.47;;;2.00;;
5890;SDS011;2971;52.420;7.080;2023-09-19T15:53:34;4.83;;;1.93;;
5890;SDS011;2971;52.420;7.080;2023-09-19T15:56:08;3.97;;;1.80;;
5890;SDS011;2971;52.420;7.080;2023-09-19T15:58:33;8.37;;;2.20;;
5890;SDS011;2971;52.420;7.080;2023-09-19T16:01:04;4.30;;;1.90;;
5890;SDS011;2971;52.420;7.080;2023-09-19T16:03:31;3.40;;;1.80;;
5890;SDS011;2971;52.420;7.080;2023-09-19T16:05:56;4.23;;;2.20;;
5890;SDS011;2971;52.420;7.080;2023-09-19T16:08:21;7.07;;;2.17;;
5890;SDS011;2971;52.420;7.080;2023-09-19T16:10:47;3.70;;;1.97;;
5890;SDS011;2971;52.420;7.080;2023-09-19T16:13:13;5.03;;;1.90;;
5890;SDS011;2971;52.420;7.080;2023-09-19T16:15:41;5.30;;;2.03;;
5890;SDS011;2971;52.420;7.080;2023-09-19T16:18:09;4.33;;;1.90;;
5890;SDS011;2971;52.420;7.080;2023-09-19T16:20:34;5.80;;;2.00;;
5890;SDS011;2971;52.420;7.080;2023-09-19T16:23:03;5.93;;;1.93;;
5890;SDS011;2971;52.420;7.080;2023-09-19T16:25:29;6.03;;;2.00;;
5890;SDS011;2971;52.420;7.080;2023-09-19T16:27:54;5.17;;;2.17;;